sensor_id;sensor_type;location;lat;lon;timestamp;P1;durP1;ratioP1;P2;durP2;ratioP2
7985;SDS011;4038;42.612;23.066;2022-09-02T00:01:46;33.13;;;30.52;;
7985;SDS011;4038;42.612;23.066;2022-09-02T00:04:17;32.97;;;30.40;;
7985;SDS011;4038;42.612;23.066;2022-09-02T00:06:47;32.63;;;30.13;;
7985;SDS011;4038;42.612;23.066;2022-09-02T00:09:15;33.88;;;31.27;;
7985;SDS011;4038;42.612;23.066;2022-09-02T00:11:42;33.28;;;30.80;;
7985;SDS011;4038;42.612;23.066;2022-09-02T00:14:10;32.83;;;30.35;;
7985;SDS011;4038;42.612;23.066;2022-09-02T00:16:43;32.00;;;29.60;;
7985;SDS011;4038;42.612;23.066;2022-09-02T00:19:16;30.35;;;28.00;;
7985;SDS011;4038;42.612;23.066;2022-09-02T00:21:43;31.83;;;29.23;;
7985;SDS011;4038;42.612;23.066;2022-09-02T00:24:09;31.45;;;28.95;;
7985;SDS011;4038;42.612;23.066;2022-09-02T00:26:35;29.95;;;27.63;;
7985;SDS011;4038;42.612;23.066;2022-09-02T00:29:00;32.55;;;29.90;;
7985;SDS011;4038;42.612;23.066;2022-09-02T00:31:26;30.58;;;28.27;;
7985;SDS011;4038;42.612;23.066;2022-09-02T00:33:52;30.25;;;27.95;;
7985;SDS011;4038;42.612;23.066;2022-09-02T00:36:19;29.92;;;27.80;;
7985;SDS011;4038;42.612;23.066;2022-09-02T00:38:45;31.27;;;28.77;;
7985;SDS011;4038;42.612;23.066;2022-09-02T00:41:11;32.75;;;30.42;;
7985;SDS011;4038;42.612;23.066;2022-09-02T00:43:44;35.47;;;32.83;;
7985;SDS011;4038;42.612;23.066;2022-09-02T00:46:14;37.70;;;34.80;;
7985;SDS011;4038;42.612;23.066;2022-09-02T00:48:43;36.83;;;33.92;;
7985;SDS011;4038;42.612;23.066;2022-09-02T00:51:12;38.45;;;35.42;;
7985;SDS011;4038;42.612;23.066;2022-09-02T00:53:39;35.38;;;32.55;;
7985;SDS011;4038;42.612;23.066;2022-09-02T00:56:09;34.85;;;32.15;;
7985;SDS011;4038;42.612;23.066;2022-09-02T00:58:39;34.60;;;31.90;;
7985;SDS011;4038;42.612;23.066;2022-09-02T01:01:07;34.45;;;31.85;;
7985;SDS011;4038;42.612;23.066;2022-09-02T01:03:34;34.95;;;32.38;;
7985;SDS011;4038;42.612;23.066;2022-09-02T01:06:00;34.35;;;31.85;;
7985;SDS011;4038;42.612;23.066;2022-09-02T01:08:27;34.03;;;31.25;;
7985;SDS011;4038;42.612;23.066;2022-09-02T01:10:58;34.10;;;31.50;;
7985;SDS011;4038;42.612;23.066;2022-09-02T01:13:26;33.42;;;30.73;;
7985;SDS011;4038;42.612;23.066;2022-09-02T01:15:57;33.65;;;31.15;;
7985;SDS011;4038;42.612;23.066;2022-09-02T01:18:34;34.30;;;31.80;;
7985;SDS011;4038;42.612;23.066;2022-09-02T01:21:01;34.58;;;31.80;;
7985;SDS011;4038;42.612;23.066;2022-09-02T01:23:28;32.55;;;29.95;;
7985;SDS011;4038;42.612;23.066;2022-09-02T01:25:56;32.13;;;29.63;;
7985;SDS011;4038;42.612;23.066;2022-09-02T01:28:22;33.50;;;31.00;;
7985;SDS011;4038;42.612;23.066;2022-09-02T01:30:49;33.97;;;31.48;;
7985;SDS011;4038;42.612;23.066;2022-09-02T01:33:17;33.30;;;30.90;;
7985;SDS011;4038;42.612;23.066;2022-09-02T01:35:44;30.92;;;28.73;;
7985;SDS011;4038;42.612;23.066;2022-09-02T01:38:10;34.00;;;31.40;;
7985;SDS011;4038;42.612;23.066;2022-09-02T01:40:36;33.35;;;30.70;;
7985;SDS011;4038;42.612;23.066;2022-09-02T01:43:07;32.40;;;29.90;;
7985;SDS011;4038;42.612;23.066;2022-09-02T01:45:35;33.42;;;30.77;;
7985;SDS011;4038;42.612;23.066;2022-09-02T01:48:03;34.17;;;31.58;;
7985;SDS011;4038;42.612;23.066;2022-09-02T01:50:29;33.88;;;31.27;;
7985;SDS011;4038;42.612;23.066;2022-09-02T01:52:56;32.28;;;29.88;;
7985;SDS011;4038;42.612;23.066;2022-09-02T01:55:25;30.77;;;28.50;;
7985;SDS011;4038;42.612;23.066;2022-09-02T01:57:51;33.58;;;30.90;;
7985;SDS011;4038;42.612;23.066;2022-09-02T02:00:16;32.58;;;30.13;;
7985;SDS011;4038;42.612;23.066;2022-09-02T02:02:42;31.90;;;29.50;;
7985;SDS011;4038;42.612;23.066;2022-09-02T02:05:07;32.80;;;30.25;;
7985;SDS011;4038;42.612;23.066;2022-09-02T02:07:33;33.33;;;30.63;;
7985;SDS011;4038;42.612;23.066;2022-09-02T02:09:59;33.00;;;30.35;;
7985;SDS011;4038;42.612;23.066;2022-09-02T02:12:24;32.33;;;29.85;;
7985;SDS011;4038;42.612;23.066;2022-09-02T02:14:50;33.05;;;30.48;;
7985;SDS011;4038;42.612;23.066;2022-09-02T02:17:15;30.08;;;27.67;;
7985;SDS011;4038;42.612;23.066;2022-09-02T02:19:41;29.75;;;27.45;;
7985;SDS011;4038;42.612;23.066;2022-09-02T02:22:08;30.08;;;27.52;;
7985;SDS011;4038;42.612;23.066;2022-09-02T02:24:34;30.35;;;27.90;;
7985;SDS011;4038;42.612;23.066;2022-09-02T02:26:59;31.15;;;28.75;;
7985;SDS011;4038;42.612;23.066;2022-09-02T02:29:25;29.63;;;27.42;;
7985;SDS011;4038;42.612;23.066;2022-09-02T02:31:50;29.85;;;27.52;;
7985;SDS011;4038;42.612;23.066;2022-09-02T02:34:16;28.67;;;26.58;;
7985;SDS011;4038;42.612;23.066;2022-09-02T02:36:42;27.40;;;25.27;;
7985;SDS011;4038;42.612;23.066;2022-09-02T02:39:09;27.83;;;25.83;;
7985;SDS011;4038;42.612;23.066;2022-09-02T02:41:35;26.42;;;24.52;;
7985;SDS011;4038;42.612;23.066;2022-09-02T02:44:02;27.13;;;25.23;;
7985;SDS011;4038;42.612;23.066;2022-09-02T02:46:28;27.08;;;25.05;;
7985;SDS011;4038;42.612;23.066;2022-09-02T02:48:55;26.60;;;24.70;;
7985;SDS011;4038;42.612;23.066;2022-09-02T02:51:22;27.17;;;25.27;;
7985;SDS011;4038;42.612;23.066;2022-09-02T02:53:48;27.55;;;25.45;;
7985;SDS011;4038;42.612;23.066;2022-09-02T02:56:13;25.40;;;23.70;;
7985;SDS011;4038;42.612;23.066;2022-09-02T02:58:38;26.67;;;24.77;;
7985;SDS011;4038;42.612;23.066;2022-09-02T03:01:04;25.85;;;24.15;;
7985;SDS011;4038;42.612;23.066;2022-09-02T03:03:29;24.60;;;22.80;;
7985;SDS011;4038;42.612;23.066;2022-09-02T03:05:56;25.50;;;23.80;;
7985;SDS011;4038;42.612;23.066;2022-09-02T03:08:22;24.58;;;22.88;;
7985;SDS011;4038;42.612;23.066;2022-09-02T03:10:49;25.67;;;23.92;;
7985;SDS011;4038;42.612;23.066;2022-09-02T03:13:20;24.67;;;23.08;;
7985;SDS011;4038;42.612;23.066;2022-09-02T03:15:47;27.17;;;25.27;;
7985;SDS011;4038;42.612;23.066;2022-09-02T03:18:13;26.98;;;25.02;;
7985;SDS011;4038;42.612;23.066;2022-09-02T03:20:39;25.55;;;23.75;;
7985;SDS011;4038;42.612;23.066;2022-09-02T03:23:05;25.88;;;23.90;;
7985;SDS011;4038;42.612;23.066;2022-09-02T03:25:31;26.17;;;24.38;;
7985;SDS011;4038;42.612;23.066;2022-09-02T03:27:58;25.70;;;24.10;;
7985;SDS011;4038;42.612;23.066;2022-09-02T03:30:28;26.23;;;24.52;;
7985;SDS011;4038;42.612;23.066;2022-09-02T03:32:55;26.10;;;24.40;;
7985;SDS011;4038;42.612;23.066;2022-09-02T03:35:23;24.55;;;23.05;;
7985;SDS011;4038;42.612;23.066;2022-09-02T03:37:50;25.90;;;24.20;;
7985;SDS011;4038;42.612;23.066;2022-09-02T03:40:21;25.00;;;23.40;;
7985;SDS011;4038;42.612;23.066;2022-09-02T03:42:48;27.00;;;25.25;;
7985;SDS011;4038;42.612;23.066;2022-09-02T03:45:15;27.45;;;25.45;;
7985;SDS011;4038;42.612;23.066;2022-09-02T03:47:41;26.45;;;24.60;;
7985;SDS011;4038;42.612;23.066;2022-09-02T03:50:15;26.98;;;24.58;;
7985;SDS011;4038;42.612;23.066;2022-09-02T03:52:41;27.45;;;25.45;;
7985;SDS011;4038;42.612;23.066;2022-09-02T03:55:07;27.85;;;25.80;;
7985;SDS011;4038;42.612;23.066;2022-09-02T03:57:34;28.15;;;26.08;;
7985;SDS011;4038;42.612;23.066;2022-09-02T04:00:00;28.80;;;26.60;;
7985;SDS011;4038;42.612;23.066;2022-09-02T04:02:28;28.85;;;26.65;;
7985;SDS011;4038;42.612;23.066;2022-09-02T04:04:53;28.75;;;26.65;;
7985;SDS011;4038;42.612;23.066;2022-09-02T04:07:19;27.88;;;25.67;;
7985;SDS011;4038;42.612;23.066;2022-09-02T04:09:45;28.92;;;26.80;;
7985;SDS011;4038;42.612;23.066;2022-09-02T04:12:10;28.27;;;26.08;;
7985;SDS011;4038;42.612;23.066;2022-09-02T04:14:36;27.30;;;25.27;;
7985;SDS011;4038;42.612;23.066;2022-09-02T04:17:02;28.35;;;26.15;;
7985;SDS011;4038;42.612;23.066;2022-09-02T04:19:27;27.10;;;25.05;;
7985;SDS011;4038;42.612;23.066;2022-09-02T04:21:53;26.02;;;24.08;;
7985;SDS011;4038;42.612;23.066;2022-09-02T04:24:18;26.20;;;24.30;;
7985;SDS011;4038;42.612;23.066;2022-09-02T04:26:44;27.40;;;25.17;;
7985;SDS011;4038;42.612;23.066;2022-09-02T04:29:10;27.23;;;25.23;;
7985;SDS011;4038;42.612;23.066;2022-09-02T04:31:35;29.40;;;27.10;;
7985;SDS011;4038;42.612;23.066;2022-09-02T04:34:01;28.73;;;26.58;;
7985;SDS011;4038;42.612;23.066;2022-09-02T04:36:27;29.08;;;26.77;;
7985;SDS011;4038;42.612;23.066;2022-09-02T04:38:54;29.63;;;27.33;;
7985;SDS011;4038;42.612;23.066;2022-09-02T04:41:22;29.20;;;26.73;;
7985;SDS011;4038;42.612;23.066;2022-09-02T04:43:50;30.50;;;27.77;;
7985;SDS011;4038;42.612;23.066;2022-09-02T04:46:17;29.17;;;26.88;;
7985;SDS011;4038;42.612;23.066;2022-09-02T04:48:43;28.70;;;26.48;;
7985;SDS011;4038;42.612;23.066;2022-09-02T04:51:16;30.45;;;27.85;;
7985;SDS011;4038;42.612;23.066;2022-09-02T04:53:45;30.77;;;28.33;;
7985;SDS011;4038;42.612;23.066;2022-09-02T04:56:12;30.35;;;27.75;;
7985;SDS011;4038;42.612;23.066;2022-09-02T04:58:39;30.67;;;28.27;;
7985;SDS011;4038;42.612;23.066;2022-09-02T05:01:06;31.95;;;29.45;;
7985;SDS011;4038;42.612;23.066;2022-09-02T05:03:42;30.88;;;28.48;;
7985;SDS011;4038;42.612;23.066;2022-09-02T05:06:09;31.45;;;28.95;;
7985;SDS011;4038;42.612;23.066;2022-09-02T05:08:36;30.90;;;28.50;;
7985;SDS011;4038;42.612;23.066;2022-09-02T05:11:05;28.88;;;26.67;;
7985;SDS011;4038;42.612;23.066;2022-09-02T05:13:32;28.15;;;25.90;;
7985;SDS011;4038;42.612;23.066;2022-09-02T05:15:57;27.05;;;25.05;;
7985;SDS011;4038;42.612;23.066;2022-09-02T05:18:23;26.67;;;24.65;;
7985;SDS011;4038;42.612;23.066;2022-09-02T05:20:48;26.42;;;24.42;;
7985;SDS011;4038;42.612;23.066;2022-09-02T05:23:13;26.40;;;24.30;;
7985;SDS011;4038;42.612;23.066;2022-09-02T05:25:39;26.85;;;24.75;;
7985;SDS011;4038;42.612;23.066;2022-09-02T05:28:05;25.85;;;23.83;;
7985;SDS011;4038;42.612;23.066;2022-09-02T05:30:37;24.45;;;22.65;;
7985;SDS011;4038;42.612;23.066;2022-09-02T05:33:05;25.30;;;23.30;;
7985;SDS011;4038;42.612;23.066;2022-09-02T05:35:31;25.95;;;23.88;;
7985;SDS011;4038;42.612;23.066;2022-09-02T05:37:56;25.85;;;23.85;;
7985;SDS011;4038;42.612;23.066;2022-09-02T05:40:22;24.83;;;22.88;;
7985;SDS011;4038;42.612;23.066;2022-09-02T05:42:47;24.17;;;22.35;;
7985;SDS011;4038;42.612;23.066;2022-09-02T05:45:13;24.05;;;22.15;;
7985;SDS011;4038;42.612;23.066;2022-09-02T05:47:39;23.85;;;22.08;;
7985;SDS011;4038;42.612;23.066;2022-09-02T05:50:04;24.85;;;22.70;;
7985;SDS011;4038;42.612;23.066;2022-09-02T05:52:30;24.45;;;22.55;;
7985;SDS011;4038;42.612;23.066;2022-09-02T05:54:56;25.08;;;23.08;;
7985;SDS011;4038;42.612;23.066;2022-09-02T05:57:22;24.45;;;22.42;;
7985;SDS011;4038;42.612;23.066;2022-09-02T05:59:48;24.08;;;21.98;;
7985;SDS011;4038;42.612;23.066;2022-09-02T06:02:20;24.17;;;22.27;;
7985;SDS011;4038;42.612;23.066;2022-09-02T06:04:47;24.58;;;22.75;;
7985;SDS011;4038;42.612;23.066;2022-09-02T06:07:15;26.00;;;23.88;;
7985;SDS011;4038;42.612;23.066;2022-09-02T06:09:42;25.25;;;23.25;;
7985;SDS011;4038;42.612;23.066;2022-09-02T06:12:09;24.17;;;22.05;;
7985;SDS011;4038;42.612;23.066;2022-09-02T06:14:37;24.40;;;22.50;;
7985;SDS011;4038;42.612;23.066;2022-09-02T06:17:02;26.33;;;24.13;;
7985;SDS011;4038;42.612;23.066;2022-09-02T06:19:29;24.77;;;22.80;;
7985;SDS011;4038;42.612;23.066;2022-09-02T06:21:56;26.15;;;24.02;;
7985;SDS011;4038;42.612;23.066;2022-09-02T06:24:22;25.75;;;23.65;;
7985;SDS011;4038;42.612;23.066;2022-09-02T06:26:48;24.67;;;22.77;;
7985;SDS011;4038;42.612;23.066;2022-09-02T06:29:14;25.63;;;23.52;;
7985;SDS011;4038;42.612;23.066;2022-09-02T06:31:41;25.92;;;23.90;;
7985;SDS011;4038;42.612;23.066;2022-09-02T06:34:10;26.38;;;24.13;;
7985;SDS011;4038;42.612;23.066;2022-09-02T06:36:37;26.27;;;24.08;;
7985;SDS011;4038;42.612;23.066;2022-09-02T06:39:04;26.83;;;24.52;;
7985;SDS011;4038;42.612;23.066;2022-09-02T06:41:30;26.98;;;24.45;;
7985;SDS011;4038;42.612;23.066;2022-09-02T06:43:58;28.55;;;26.10;;
7985;SDS011;4038;42.612;23.066;2022-09-02T06:46:28;28.27;;;25.83;;
7985;SDS011;4038;42.612;23.066;2022-09-02T06:48:59;27.48;;;25.25;;
7985;SDS011;4038;42.612;23.066;2022-09-02T06:51:26;27.75;;;25.65;;
7985;SDS011;4038;42.612;23.066;2022-09-02T06:54:03;27.48;;;25.13;;
7985;SDS011;4038;42.612;23.066;2022-09-02T06:56:31;28.40;;;25.95;;
7985;SDS011;4038;42.612;23.066;2022-09-02T06:58:57;27.33;;;25.17;;
7985;SDS011;4038;42.612;23.066;2022-09-02T07:01:24;27.63;;;25.33;;
7985;SDS011;4038;42.612;23.066;2022-09-02T07:03:52;28.45;;;26.05;;
7985;SDS011;4038;42.612;23.066;2022-09-02T07:06:56;28.30;;;25.98;;
7985;SDS011;4038;42.612;23.066;2022-09-02T07:09:24;29.00;;;26.60;;
7985;SDS011;4038;42.612;23.066;2022-09-02T07:11:55;29.05;;;26.33;;
7985;SDS011;4038;42.612;23.066;2022-09-02T07:14:22;29.20;;;26.83;;
7985;SDS011;4038;42.612;23.066;2022-09-02T07:16:50;27.90;;;25.63;;
7985;SDS011;4038;42.612;23.066;2022-09-02T07:19:17;27.08;;;24.65;;
7985;SDS011;4038;42.612;23.066;2022-09-02T07:21:43;26.17;;;24.17;;
7985;SDS011;4038;42.612;23.066;2022-09-02T07:24:10;25.75;;;23.80;;
7985;SDS011;4038;42.612;23.066;2022-09-02T07:26:36;25.70;;;23.80;;
7985;SDS011;4038;42.612;23.066;2022-09-02T07:29:03;26.50;;;24.50;;
7985;SDS011;4038;42.612;23.066;2022-09-02T07:31:31;24.75;;;22.77;;
7985;SDS011;4038;42.612;23.066;2022-09-02T07:33:56;24.33;;;22.33;;
7985;SDS011;4038;42.612;23.066;2022-09-02T07:36:23;24.80;;;23.00;;
7985;SDS011;4038;42.612;23.066;2022-09-02T07:38:50;24.88;;;22.98;;
7985;SDS011;4038;42.612;23.066;2022-09-02T07:41:16;25.38;;;23.35;;
7985;SDS011;4038;42.612;23.066;2022-09-02T07:43:41;25.15;;;23.02;;
7985;SDS011;4038;42.612;23.066;2022-09-02T07:46:07;26.42;;;24.13;;
7985;SDS011;4038;42.612;23.066;2022-09-02T07:48:33;26.08;;;23.92;;
7985;SDS011;4038;42.612;23.066;2022-09-02T07:50:59;25.05;;;23.13;;
7985;SDS011;4038;42.612;23.066;2022-09-02T07:53:25;27.98;;;25.58;;
7985;SDS011;4038;42.612;23.066;2022-09-02T07:55:51;25.95;;;23.95;;
7985;SDS011;4038;42.612;23.066;2022-09-02T07:58:18;26.42;;;24.33;;
7985;SDS011;4038;42.612;23.066;2022-09-02T08:00:44;26.60;;;24.35;;
7985;SDS011;4038;42.612;23.066;2022-09-02T08:03:11;26.30;;;24.08;;
7985;SDS011;4038;42.612;23.066;2022-09-02T08:05:39;27.48;;;25.08;;
7985;SDS011;4038;42.612;23.066;2022-09-02T08:08:06;26.27;;;23.90;;
7985;SDS011;4038;42.612;23.066;2022-09-02T08:10:32;25.48;;;23.33;;
7985;SDS011;4038;42.612;23.066;2022-09-02T08:13:00;25.75;;;23.55;;
7985;SDS011;4038;42.612;23.066;2022-09-02T08:15:26;26.52;;;24.30;;
7985;SDS011;4038;42.612;23.066;2022-09-02T08:17:53;26.13;;;23.98;;
7985;SDS011;4038;42.612;23.066;2022-09-02T08:20:19;26.13;;;23.77;;
7985;SDS011;4038;42.612;23.066;2022-09-02T08:22:45;26.70;;;24.45;;
7985;SDS011;4038;42.612;23.066;2022-09-02T08:25:11;26.90;;;24.50;;
7985;SDS011;4038;42.612;23.066;2022-09-02T08:27:36;26.60;;;24.30;;
7985;SDS011;4038;42.612;23.066;2022-09-02T08:30:06;27.33;;;24.98;;
7985;SDS011;4038;42.612;23.066;2022-09-02T08:32:34;26.25;;;24.00;;
7985;SDS011;4038;42.612;23.066;2022-09-02T08:35:00;26.45;;;24.08;;
7985;SDS011;4038;42.612;23.066;2022-09-02T08:37:28;27.27;;;25.08;;
7985;SDS011;4038;42.612;23.066;2022-09-02T08:39:58;28.50;;;26.00;;
7985;SDS011;4038;42.612;23.066;2022-09-02T08:47:46;30.38;;;27.77;;
7985;SDS011;4038;42.612;23.066;2022-09-02T08:50:16;31.38;;;28.42;;
7985;SDS011;4038;42.612;23.066;2022-09-02T08:55:28;31.63;;;28.83;;
7985;SDS011;4038;42.612;23.066;2022-09-02T08:57:59;32.20;;;29.15;;
7985;SDS011;4038;42.612;23.066;2022-09-02T09:00:25;31.80;;;29.10;;
7985;SDS011;4038;42.612;23.066;2022-09-02T09:03:14;30.30;;;27.63;;
7985;SDS011;4038;42.612;23.066;2022-09-02T09:05:52;29.77;;;27.05;;
7985;SDS011;4038;42.612;23.066;2022-09-02T09:08:50;28.23;;;25.67;;
7985;SDS011;4038;42.612;23.066;2022-09-02T09:11:22;27.73;;;25.48;;
7985;SDS011;4038;42.612;23.066;2022-09-02T09:16:38;27.33;;;25.15;;
7985;SDS011;4038;42.612;23.066;2022-09-02T09:21:35;27.40;;;25.33;;
7985;SDS011;4038;42.612;23.066;2022-09-02T09:24:13;27.40;;;25.20;;
7985;SDS011;4038;42.612;23.066;2022-09-02T09:26:45;26.98;;;24.77;;
7985;SDS011;4038;42.612;23.066;2022-09-02T09:29:11;27.08;;;25.08;;
7985;SDS011;4038;42.612;23.066;2022-09-02T09:31:37;26.90;;;24.90;;
7985;SDS011;4038;42.612;23.066;2022-09-02T09:34:05;26.73;;;24.75;;
7985;SDS011;4038;42.612;23.066;2022-09-02T09:36:51;27.27;;;25.13;;
7985;SDS011;4038;42.612;23.066;2022-09-02T09:39:28;26.25;;;24.35;;
7985;SDS011;4038;42.612;23.066;2022-09-02T09:42:02;26.65;;;24.65;;
7985;SDS011;4038;42.612;23.066;2022-09-02T09:44:39;27.50;;;25.30;;
7985;SDS011;4038;42.612;23.066;2022-09-02T09:47:19;26.73;;;24.67;;
7985;SDS011;4038;42.612;23.066;2022-09-02T09:50:20;27.55;;;25.40;;
7985;SDS011;4038;42.612;23.066;2022-09-02T09:52:43;26.83;;;24.83;;
7985;SDS011;4038;42.612;23.066;2022-09-02T09:57:37;28.67;;;26.50;;
7985;SDS011;4038;42.612;23.066;2022-09-02T10:02:57;26.40;;;24.60;;
7985;SDS011;4038;42.612;23.066;2022-09-02T10:08:32;27.20;;;25.30;;
7985;SDS011;4038;42.612;23.066;2022-09-02T10:10:38;26.83;;;24.83;;
7985;SDS011;4038;42.612;23.066;2022-09-02T10:13:24;27.98;;;25.92;;
7985;SDS011;4038;42.612;23.066;2022-09-02T10:26:46;28.08;;;26.08;;
7985;SDS011;4038;42.612;23.066;2022-09-02T10:56:17;28.77;;;26.50;;
7985;SDS011;4038;42.612;23.066;2022-09-02T10:58:56;30.23;;;28.02;;
7985;SDS011;4038;42.612;23.066;2022-09-02T11:01:28;30.55;;;28.15;;
7985;SDS011;4038;42.612;23.066;2022-09-02T11:06:38;31.00;;;28.50;;
7985;SDS011;4038;42.612;23.066;2022-09-02T11:09:13;31.30;;;28.95;;
7985;SDS011;4038;42.612;23.066;2022-09-02T11:12:49;31.00;;;28.52;;
7985;SDS011;4038;42.612;23.066;2022-09-02T11:15:05;30.58;;;28.27;;
7985;SDS011;4038;42.612;23.066;2022-09-02T11:25:45;30.17;;;27.98;;
7985;SDS011;4038;42.612;23.066;2022-09-02T11:31:21;30.45;;;28.10;;
7985;SDS011;4038;42.612;23.066;2022-09-02T11:33:55;30.48;;;28.15;;
7985;SDS011;4038;42.612;23.066;2022-09-02T11:36:26;30.05;;;27.85;;
7985;SDS011;4038;42.612;23.066;2022-09-02T11:38:53;30.55;;;28.15;;
7985;SDS011;4038;42.612;23.066;2022-09-02T11:44:27;30.60;;;28.40;;
7985;SDS011;4038;42.612;23.066;2022-09-02T11:55:48;30.23;;;28.02;;
7985;SDS011;4038;42.612;23.066;2022-09-02T12:03:30;30.83;;;28.60;;
7985;SDS011;4038;42.612;23.066;2022-09-02T12:11:01;30.30;;;28.05;;
7985;SDS011;4038;42.612;23.066;2022-09-02T12:21:18;31.65;;;29.25;;
7985;SDS011;4038;42.612;23.066;2022-09-02T12:26:13;30.67;;;28.38;;
7985;SDS011;4038;42.612;23.066;2022-09-02T12:28:43;30.83;;;28.42;;
7985;SDS011;4038;42.612;23.066;2022-09-02T12:31:14;31.60;;;29.30;;
7985;SDS011;4038;42.612;23.066;2022-09-02T12:34:00;31.27;;;29.08;;
7985;SDS011;4038;42.612;23.066;2022-09-02T12:46:58;33.30;;;30.90;;
7985;SDS011;4038;42.612;23.066;2022-09-02T12:49:53;33.17;;;30.48;;
7985;SDS011;4038;42.612;23.066;2022-09-02T12:57:54;32.10;;;29.70;;
7985;SDS011;4038;42.612;23.066;2022-09-02T13:02:59;34.00;;;31.42;;
7985;SDS011;4038;42.612;23.066;2022-09-02T13:14:06;34.63;;;32.03;;
7985;SDS011;4038;42.612;23.066;2022-09-02T13:17:15;34.30;;;31.83;;
7985;SDS011;4038;42.612;23.066;2022-09-02T13:30:40;33.97;;;31.48;;
7985;SDS011;4038;42.612;23.066;2022-09-02T13:33:13;33.92;;;31.23;;
7985;SDS011;4038;42.612;23.066;2022-09-02T13:35:39;33.15;;;30.75;;
7985;SDS011;4038;42.612;23.066;2022-09-02T13:38:12;34.03;;;31.48;;
7985;SDS011;4038;42.612;23.066;2022-09-02T13:40:38;33.72;;;31.33;;
7985;SDS011;4038;42.612;23.066;2022-09-02T13:45:40;32.08;;;29.58;;
7985;SDS011;4038;42.612;23.066;2022-09-02T13:48:25;30.13;;;27.90;;
7985;SDS011;4038;42.612;23.066;2022-09-02T13:50:53;31.73;;;29.48;;
7985;SDS011;4038;42.612;23.066;2022-09-02T13:55:49;29.17;;;27.08;;
7985;SDS011;4038;42.612;23.066;2022-09-02T13:58:21;27.98;;;25.98;;
7985;SDS011;4038;42.612;23.066;2022-09-02T14:00:56;27.95;;;25.80;;
7985;SDS011;4038;42.612;23.066;2022-09-02T14:03:33;29.50;;;27.17;;
7985;SDS011;4038;42.612;23.066;2022-09-02T14:05:59;28.35;;;26.35;;
7985;SDS011;4038;42.612;23.066;2022-09-02T14:08:25;28.08;;;26.00;;
7985;SDS011;4038;42.612;23.066;2022-09-02T14:10:53;27.10;;;25.10;;
7985;SDS011;4038;42.612;23.066;2022-09-02T14:13:20;28.10;;;26.00;;
7985;SDS011;4038;42.612;23.066;2022-09-02T14:15:47;28.05;;;25.92;;
7985;SDS011;4038;42.612;23.066;2022-09-02T14:18:15;27.20;;;25.20;;
7985;SDS011;4038;42.612;23.066;2022-09-02T14:23:24;27.30;;;25.35;;
7985;SDS011;4038;42.612;23.066;2022-09-02T14:25:52;26.92;;;25.00;;
7985;SDS011;4038;42.612;23.066;2022-09-02T14:28:23;26.23;;;24.20;;
7985;SDS011;4038;42.612;23.066;2022-09-02T14:30:58;26.15;;;24.25;;
7985;SDS011;4038;42.612;23.066;2022-09-02T14:41:14;25.42;;;23.63;;
7985;SDS011;4038;42.612;23.066;2022-09-02T14:43:57;26.02;;;24.23;;
7985;SDS011;4038;42.612;23.066;2022-09-02T14:46:28;25.88;;;23.90;;
7985;SDS011;4038;42.612;23.066;2022-09-02T14:49:02;25.17;;;23.38;;
7985;SDS011;4038;42.612;23.066;2022-09-02T14:51:36;24.42;;;22.83;;
7985;SDS011;4038;42.612;23.066;2022-09-02T14:54:07;25.20;;;23.40;;
7985;SDS011;4038;42.612;23.066;2022-09-02T14:56:48;24.88;;;23.17;;
7985;SDS011;4038;42.612;23.066;2022-09-02T14:59:18;25.15;;;23.50;;
7985;SDS011;4038;42.612;23.066;2022-09-02T15:01:46;25.75;;;24.08;;
7985;SDS011;4038;42.612;23.066;2022-09-02T15:04:19;26.35;;;24.65;;
7985;SDS011;4038;42.612;23.066;2022-09-02T15:06:45;25.40;;;23.70;;
7985;SDS011;4038;42.612;23.066;2022-09-02T15:09:16;29.08;;;27.08;;
7985;SDS011;4038;42.612;23.066;2022-09-02T15:11:45;29.70;;;27.50;;
7985;SDS011;4038;42.612;23.066;2022-09-02T15:14:17;28.38;;;26.25;;
7985;SDS011;4038;42.612;23.066;2022-09-02T15:16:45;27.98;;;26.08;;
7985;SDS011;4038;42.612;23.066;2022-09-02T15:19:15;27.65;;;25.63;;
7985;SDS011;4038;42.612;23.066;2022-09-02T15:21:43;29.48;;;27.27;;
7985;SDS011;4038;42.612;23.066;2022-09-02T15:24:18;29.95;;;27.77;;
7985;SDS011;4038;42.612;23.066;2022-09-02T15:26:43;29.52;;;27.42;;
7985;SDS011;4038;42.612;23.066;2022-09-02T15:29:09;30.23;;;27.92;;
7985;SDS011;4038;42.612;23.066;2022-09-02T15:31:34;30.70;;;28.50;;
7985;SDS011;4038;42.612;23.066;2022-09-02T15:34:03;31.83;;;29.35;;
7985;SDS011;4038;42.612;23.066;2022-09-02T15:36:28;32.50;;;30.20;;
7985;SDS011;4038;42.612;23.066;2022-09-02T15:38:55;32.88;;;30.40;;
7985;SDS011;4038;42.612;23.066;2022-09-02T15:41:21;33.95;;;31.45;;
7985;SDS011;4038;42.612;23.066;2022-09-02T15:43:50;32.42;;;30.13;;
7985;SDS011;4038;42.612;23.066;2022-09-02T15:46:25;31.88;;;29.67;;
7985;SDS011;4038;42.612;23.066;2022-09-02T15:48:55;34.08;;;31.35;;
7985;SDS011;4038;42.612;23.066;2022-09-02T15:51:25;34.40;;;31.70;;
7985;SDS011;4038;42.612;23.066;2022-09-02T15:54:04;34.03;;;31.33;;
7985;SDS011;4038;42.612;23.066;2022-09-02T15:56:32;34.90;;;32.17;;
7985;SDS011;4038;42.612;23.066;2022-09-02T15:59:15;35.15;;;32.45;;
7985;SDS011;4038;42.612;23.066;2022-09-02T16:01:45;33.60;;;31.10;;
7985;SDS011;4038;42.612;23.066;2022-09-02T16:04:12;36.20;;;33.40;;
7985;SDS011;4038;42.612;23.066;2022-09-02T16:06:43;34.50;;;31.95;;
7985;SDS011;4038;42.612;23.066;2022-09-02T16:09:14;35.85;;;32.83;;
7985;SDS011;4038;42.612;23.066;2022-09-02T16:11:45;36.63;;;33.72;;
7985;SDS011;4038;42.612;23.066;2022-09-02T16:14:16;36.80;;;33.78;;
7985;SDS011;4038;42.612;23.066;2022-09-02T16:16:42;35.78;;;33.08;;
7985;SDS011;4038;42.612;23.066;2022-09-02T16:19:09;37.55;;;34.65;;
7985;SDS011;4038;42.612;23.066;2022-09-02T16:21:35;39.85;;;36.55;;
7985;SDS011;4038;42.612;23.066;2022-09-02T16:24:05;41.10;;;37.67;;
7985;SDS011;4038;42.612;23.066;2022-09-02T16:26:33;40.00;;;36.60;;
7985;SDS011;4038;42.612;23.066;2022-09-02T16:29:07;39.08;;;35.67;;
7985;SDS011;4038;42.612;23.066;2022-09-02T16:31:36;38.42;;;35.00;;
7985;SDS011;4038;42.612;23.066;2022-09-02T16:34:12;38.90;;;35.70;;
7985;SDS011;4038;42.612;23.066;2022-09-02T16:36:40;38.80;;;35.60;;
7985;SDS011;4038;42.612;23.066;2022-09-02T16:39:07;39.38;;;36.08;;
7985;SDS011;4038;42.612;23.066;2022-09-02T16:41:35;36.60;;;33.60;;
7985;SDS011;4038;42.612;23.066;2022-09-02T16:44:06;37.25;;;34.22;;
7985;SDS011;4038;42.612;23.066;2022-09-02T16:46:40;35.70;;;32.90;;
7985;SDS011;4038;42.612;23.066;2022-09-02T16:49:07;33.72;;;30.92;;
7985;SDS011;4038;42.612;23.066;2022-09-02T16:51:33;38.65;;;35.40;;
7985;SDS011;4038;42.612;23.066;2022-09-02T16:54:00;32.95;;;30.08;;
7985;SDS011;4038;42.612;23.066;2022-09-02T16:56:27;31.05;;;28.55;;
7985;SDS011;4038;42.612;23.066;2022-09-02T16:58:54;31.10;;;28.67;;
7985;SDS011;4038;42.612;23.066;2022-09-02T17:01:23;30.17;;;27.77;;
7985;SDS011;4038;42.612;23.066;2022-09-02T17:03:49;32.55;;;29.85;;
7985;SDS011;4038;42.612;23.066;2022-09-02T17:06:15;31.75;;;29.20;;
7985;SDS011;4038;42.612;23.066;2022-09-02T17:08:40;29.77;;;27.48;;
7985;SDS011;4038;42.612;23.066;2022-09-02T17:13:42;30.20;;;27.77;;
7985;SDS011;4038;42.612;23.066;2022-09-02T17:16:08;29.30;;;27.05;;
7985;SDS011;4038;42.612;23.066;2022-09-02T17:18:33;29.85;;;27.55;;
7985;SDS011;4038;42.612;23.066;2022-09-02T17:21:16;28.70;;;26.45;;
7985;SDS011;4038;42.612;23.066;2022-09-02T17:23:45;29.02;;;26.83;;
7985;SDS011;4038;42.612;23.066;2022-09-02T17:26:11;29.45;;;27.15;;